createdAt,value
2018-07-14T00:02:05.507Z,16.87
2018-07-14T00:04:35.147Z,16.85
2018-07-14T00:07:04.796Z,16.90
2018-07-14T00:09:34.467Z,16.89
2018-07-14T00:12:04.091Z,16.78
2018-07-14T00:14:33.707Z,16.75
2018-07-14T00:17:03.385Z,16.45
2018-07-14T00:19:33.044Z,16.44
2018-07-14T00:22:02.676Z,16.20
2018-07-14T00:24:32.356Z,16.27
2018-07-14T00:27:01.985Z,16.20
2018-07-14T00:29:31.641Z,16.06
2018-07-14T00:32:01.325Z,15.99
2018-07-14T00:34:30.984Z,15.89
2018-07-14T00:37:00.591Z,15.76
2018-07-14T00:39:30.259Z,15.73
2018-07-14T00:41:59.909Z,15.75
2018-07-14T00:44:29.552Z,15.55
2018-07-14T00:46:59.211Z,15.53
2018-07-14T00:49:28.846Z,15.54
2018-07-14T00:51:58.548Z,15.44
2018-07-14T00:54:28.208Z,15.41
2018-07-14T00:56:57.828Z,15.41
2018-07-14T00:59:27.432Z,15.30
2018-07-14T01:01:57.076Z,15.40
2018-07-14T01:04:26.718Z,15.52
2018-07-14T01:06:56.359Z,15.41
2018-07-14T01:09:26.027Z,15.33
2018-07-14T01:11:55.653Z,15.17
2018-07-14T01:14:25.264Z,15.09
2018-07-14T01:16:54.900Z,15.33
2018-07-14T01:19:24.487Z,15.27
2018-07-14T01:21:54.144Z,15.22
2018-07-14T01:24:23.781Z,15.16
2018-07-14T01:26:53.410Z,15.13
2018-07-14T01:29:23.077Z,15.17
2018-07-14T01:31:52.682Z,15.18
2018-07-14T01:34:22.307Z,15.20
2018-07-14T01:36:51.956Z,15.14
2018-07-14T01:39:21.570Z,15.11
2018-07-14T01:41:51.332Z,15.00
2018-07-14T01:44:20.952Z,14.97
2018-07-14T01:46:50.543Z,15.04
2018-07-14T01:49:20.212Z,15.19
2018-07-14T01:51:49.827Z,15.21
2018-07-14T01:54:19.437Z,15.11
2018-07-14T01:56:49.107Z,15.16
2018-07-14T01:59:18.731Z,15.26
2018-07-14T02:01:48.355Z,15.31
2018-07-14T02:04:17.983Z,15.07
2018-07-14T02:06:47.598Z,14.91
2018-07-14T02:09:17.263Z,14.72
2018-07-14T02:11:46.903Z,14.61
2018-07-14T02:14:16.515Z,14.56
2018-07-14T02:16:46.191Z,14.51
2018-07-14T02:19:15.787Z,14.47
2018-07-14T02:21:45.395Z,14.38
2018-07-14T02:24:15.033Z,14.45
2018-07-14T02:26:44.655Z,14.45
2018-07-14T02:29:14.283Z,14.56
2018-07-14T02:31:43.944Z,14.64
2018-07-14T02:34:13.589Z,14.45
2018-07-14T02:36:43.260Z,14.25
2018-07-14T02:39:12.863Z,14.45
2018-07-14T02:41:42.471Z,14.42
2018-07-14T02:44:12.271Z,14.27
2018-07-14T02:46:41.917Z,14.20
2018-07-14T02:49:11.528Z,14.26
2018-07-14T02:51:41.556Z,14.47
2018-07-14T02:54:11.163Z,14.47
2018-07-14T02:56:40.795Z,14.58
2018-07-14T02:59:10.472Z,14.42
2018-07-14T03:01:40.129Z,14.41
2018-07-14T03:04:09.766Z,14.33
2018-07-14T03:06:39.461Z,14.31
2018-07-14T03:09:09.140Z,14.34
2018-07-14T03:11:38.764Z,14.45
2018-07-14T03:14:08.449Z,14.70
2018-07-14T03:16:38.045Z,14.75
2018-07-14T03:19:07.645Z,14.83
2018-07-14T03:21:37.562Z,14.85
2018-07-14T03:24:07.177Z,14.90
2018-07-14T03:26:36.836Z,15.06
2018-07-14T03:29:06.611Z,15.11
2018-07-14T03:31:36.220Z,15.07
2018-07-14T03:34:05.838Z,14.98
2018-07-14T03:36:35.743Z,14.93
2018-07-14T03:39:05.505Z,14.85
2018-07-14T03:41:35.188Z,14.92
2018-07-14T03:44:04.852Z,15.08
2018-07-14T03:46:34.455Z,15.16
2018-07-14T03:49:04.136Z,15.17
2018-07-14T03:51:33.759Z,15.22
2018-07-14T03:54:03.388Z,15.25
2018-07-14T03:56:33.064Z,15.25
2018-07-14T03:59:02.664Z,15.24
2018-07-14T04:01:32.315Z,15.18
2018-07-14T04:04:01.961Z,15.05
2018-07-14T04:06:31.649Z,15.00
2018-07-14T04:09:01.324Z,14.87
2018-07-14T04:11:30.943Z,14.85
2018-07-14T04:14:00.536Z,14.81
2018-07-14T04:16:30.187Z,14.70
2018-07-14T04:18:59.799Z,14.67
2018-07-14T04:21:29.411Z,14.66
2018-07-14T04:23:59.172Z,14.72
2018-07-14T04:26:28.803Z,14.78
2018-07-14T04:28:58.404Z,14.83
2018-07-14T04:31:28.060Z,14.94
2018-07-14T04:33:57.667Z,15.03
2018-07-14T04:36:27.340Z,15.26
2018-07-14T04:38:57.012Z,15.18
2018-07-14T04:41:26.612Z,15.31
2018-07-14T04:43:56.234Z,15.38
2018-07-14T04:46:25.891Z,15.28
2018-07-14T04:48:55.504Z,15.38
2018-07-14T04:51:25.301Z,15.45
2018-07-14T04:53:54.949Z,15.56
2018-07-14T04:56:24.560Z,15.59
2018-07-14T04:58:54.220Z,15.68
2018-07-14T05:01:23.827Z,15.75
2018-07-14T05:03:53.419Z,15.80
2018-07-14T05:06:23.126Z,15.79
2018-07-14T05:08:52.716Z,15.87
2018-07-14T05:11:22.389Z,15.84
2018-07-14T05:13:52.060Z,15.79
2018-07-14T05:16:21.672Z,15.77
2018-07-14T05:18:51.279Z,15.84
2018-07-14T05:21:21.028Z,15.79
2018-07-14T05:23:50.583Z,16.00
2018-07-14T05:26:20.231Z,16.25
2018-07-14T05:28:50.186Z,16.49
2018-07-14T05:31:19.829Z,16.37
2018-07-14T05:33:49.520Z,16.40
2018-07-14T05:36:19.191Z,16.54
2018-07-14T05:38:48.799Z,16.59
2018-07-14T05:41:18.441Z,16.72
2018-07-14T05:43:48.126Z,16.79
2018-07-14T05:46:17.744Z,16.71
2018-07-14T05:48:47.413Z,16.59
2018-07-14T05:51:17.021Z,16.43
2018-07-14T05:53:46.650Z,16.61
2018-07-14T05:56:16.308Z,16.83
2018-07-14T05:58:45.946Z,16.92
2018-07-14T06:01:15.566Z,17.02
2018-07-14T06:03:45.215Z,16.91
2018-07-14T06:06:14.840Z,16.73
2018-07-14T06:08:44.464Z,16.89
2018-07-14T06:11:14.135Z,16.98
2018-07-14T06:13:43.760Z,17.01
2018-07-14T06:16:13.444Z,17.10
2018-07-14T06:18:43.312Z,17.13
2018-07-14T06:21:12.959Z,17.10
2018-07-14T06:23:42.564Z,17.07
2018-07-14T06:26:12.260Z,16.93
2018-07-14T06:28:41.933Z,16.75
2018-07-14T06:31:11.544Z,16.85
2018-07-14T06:33:41.392Z,16.73
2018-07-14T06:36:11.044Z,16.63
2018-07-14T06:38:40.837Z,16.67
2018-07-14T06:41:10.495Z,16.83
2018-07-14T06:43:40.128Z,17.02
2018-07-14T06:46:09.760Z,17.32
2018-07-14T06:48:39.427Z,17.49
2018-07-14T06:51:09.568Z,17.61
2018-07-14T06:53:39.611Z,17.78
2018-07-14T06:56:09.273Z,17.86
2018-07-14T06:58:38.935Z,17.90
2018-07-14T07:01:08.720Z,18.12
2018-07-14T07:03:38.325Z,18.38
2018-07-14T07:06:08.005Z,18.66
2018-07-14T07:08:37.621Z,18.89
2018-07-14T07:11:07.320Z,19.11
2018-07-14T07:13:37.015Z,19.16
2018-07-14T07:16:06.684Z,19.12
2018-07-14T07:18:36.639Z,19.17
2018-07-14T07:21:06.240Z,19.23
2018-07-14T07:23:35.851Z,19.28
2018-07-14T07:26:05.629Z,19.47
2018-07-14T07:28:35.254Z,19.74
2018-07-14T07:31:04.916Z,19.77
2018-07-14T07:33:34.604Z,19.88
2018-07-14T07:36:04.210Z,19.84
2018-07-14T07:38:33.879Z,19.92
2018-07-14T07:41:03.532Z,19.88
2018-07-14T07:43:33.164Z,20.13
2018-07-14T07:46:02.772Z,20.34
2018-07-14T07:48:32.436Z,20.47
2018-07-14T07:51:02.068Z,20.48
2018-07-14T07:53:31.681Z,20.54
2018-07-14T07:56:01.519Z,20.66
2018-07-14T07:58:31.139Z,20.50
2018-07-14T08:01:00.745Z,20.37
2018-07-14T08:03:30.441Z,20.52
2018-07-14T08:06:00.081Z,20.85
2018-07-14T08:08:29.693Z,21.03
2018-07-14T08:10:59.380Z,21.07
2018-07-14T08:13:28.991Z,20.97
2018-07-14T08:15:58.619Z,21.16
2018-07-14T08:18:28.533Z,21.44
2018-07-14T08:20:58.172Z,21.62
2018-07-14T08:23:27.847Z,21.41
2018-07-14T08:25:57.552Z,21.39
2018-07-14T08:28:27.172Z,21.40
2018-07-14T08:30:56.800Z,21.34
2018-07-14T08:33:26.476Z,21.70
2018-07-14T08:35:56.096Z,21.85
2018-07-14T08:38:25.764Z,21.73
2018-07-14T08:40:55.414Z,21.92
2018-07-14T08:43:25.058Z,22.16
2018-07-14T08:45:54.712Z,22.31
2018-07-14T08:48:24.603Z,22.42
2018-07-14T08:50:54.228Z,22.52
2018-07-14T08:53:23.911Z,22.63
2018-07-14T08:55:53.605Z,22.60
2018-07-14T08:58:28.246Z,22.77
2018-07-14T09:00:59.423Z,22.92
2018-07-14T09:03:29.102Z,22.91
2018-07-14T09:05:59.719Z,22.84
2018-07-14T09:08:29.336Z,22.87
2018-07-14T09:10:59.059Z,22.90
2018-07-14T09:13:28.674Z,23.08
2018-07-14T09:15:58.320Z,23.20
2018-07-14T09:18:27.973Z,23.13
2018-07-14T09:20:57.660Z,23.21
2018-07-14T09:23:27.347Z,23.38
2018-07-14T09:25:56.976Z,23.50
2018-07-14T09:28:26.611Z,23.66
2018-07-14T09:30:56.276Z,23.56
2018-07-14T09:33:25.892Z,23.63
2018-07-14T09:35:55.500Z,23.82
2018-07-14T09:38:25.297Z,23.95
2018-07-14T09:40:54.940Z,23.99
2018-07-14T09:43:24.584Z,24.14
2018-07-14T09:45:54.240Z,24.21
2018-07-14T09:48:23.898Z,24.25
2018-07-14T09:50:53.523Z,24.37
2018-07-14T09:53:23.252Z,24.55
2018-07-14T09:55:52.889Z,24.64
2018-07-14T09:58:22.528Z,24.67
2018-07-14T10:00:57.426Z,24.36
2018-07-14T10:03:27.073Z,24.68
2018-07-14T10:05:56.669Z,24.62
2018-07-14T10:08:26.347Z,24.41
2018-07-14T10:10:55.964Z,24.32
2018-07-14T10:13:25.591Z,24.11
2018-07-14T10:15:55.554Z,23.90
2018-07-14T10:18:25.176Z,23.96
2018-07-14T10:20:54.812Z,23.90
2018-07-14T10:23:24.571Z,23.88
2018-07-14T10:25:54.341Z,24.03
2018-07-14T10:28:23.857Z,23.89
2018-07-14T10:30:53.644Z,23.62
2018-07-14T10:33:23.280Z,23.70
2018-07-14T10:35:52.896Z,23.80
2018-07-14T10:38:22.589Z,24.19
2018-07-14T10:40:52.256Z,24.37
2018-07-14T10:43:22.190Z,24.18
2018-07-14T10:45:51.888Z,24.64
2018-07-14T10:48:21.551Z,24.79
2018-07-14T10:50:51.219Z,24.96
2018-07-14T10:53:20.844Z,24.95
2018-07-14T10:55:50.515Z,24.96
2018-07-14T10:58:20.140Z,25.24
2018-07-14T11:00:49.774Z,25.51
2018-07-14T11:03:19.496Z,25.78
2018-07-14T11:05:49.211Z,25.85
2018-07-14T11:08:18.829Z,25.80
2018-07-14T11:10:48.507Z,25.99
2018-07-14T11:13:18.145Z,25.94
2018-07-14T11:15:47.788Z,25.92
2018-07-14T11:18:17.472Z,26.05
2018-07-14T11:20:47.107Z,26.24
2018-07-14T11:23:16.733Z,26.50
2018-07-14T11:25:46.431Z,26.69
2018-07-14T11:28:16.065Z,26.80
2018-07-14T11:30:45.980Z,26.29
2018-07-14T11:33:15.644Z,25.84
2018-07-14T11:35:45.268Z,25.55
2018-07-14T11:38:14.966Z,25.80
2018-07-14T11:40:44.748Z,26.15
2018-07-14T11:43:14.379Z,26.06
2018-07-14T11:45:44.071Z,26.32
2018-07-14T11:48:13.691Z,26.21
2018-07-14T11:50:43.320Z,26.13
2018-07-14T11:53:12.990Z,26.03
2018-07-14T11:55:42.617Z,25.94
2018-07-14T11:58:12.268Z,25.77
2018-07-14T12:00:41.940Z,25.58
2018-07-14T12:03:11.552Z,25.79
2018-07-14T12:05:41.202Z,25.93
2018-07-14T12:08:10.856Z,25.53
2018-07-14T12:10:40.508Z,25.38
2018-07-14T12:13:10.140Z,25.53
2018-07-14T12:15:39.759Z,25.94
2018-07-14T12:18:09.516Z,26.39
2018-07-14T12:20:39.163Z,26.76
2018-07-14T12:23:08.783Z,27.06
2018-07-14T12:25:38.464Z,27.50
2018-07-14T12:28:08.348Z,27.67
2018-07-14T12:30:38.048Z,27.92
2018-07-14T12:33:07.680Z,27.94
2018-07-14T12:35:37.345Z,28.26
2018-07-14T12:38:07.004Z,28.14
2018-07-14T12:40:36.700Z,28.21
2018-07-14T12:43:06.404Z,28.33
2018-07-14T12:45:36.097Z,28.54
2018-07-14T12:48:06.055Z,28.44
2018-07-14T12:50:35.696Z,28.45
2018-07-14T12:53:05.413Z,28.74
2018-07-14T12:55:35.072Z,28.89
2018-07-14T12:58:04.743Z,28.62
2018-07-14T13:00:34.412Z,28.81
2018-07-14T13:03:04.101Z,29.10
2018-07-14T13:05:33.780Z,29.11
2018-07-14T13:08:03.402Z,29.38
2018-07-14T13:10:33.083Z,29.37
2018-07-14T13:13:02.713Z,29.53
2018-07-14T13:15:32.331Z,29.71
2018-07-14T13:18:02.024Z,29.53
2018-07-14T13:20:31.673Z,29.46
2018-07-14T13:23:01.288Z,29.44
2018-07-14T13:25:30.980Z,29.07
2018-07-14T13:28:00.599Z,28.81
2018-07-14T13:30:30.340Z,28.85
2018-07-14T13:32:59.970Z,28.96
2018-07-14T13:35:29.571Z,29.07
2018-07-14T13:37:59.247Z,29.15
2018-07-14T13:40:28.884Z,29.12
2018-07-14T13:42:58.530Z,29.28
2018-07-14T13:45:28.268Z,29.29
2018-07-14T13:47:57.897Z,28.77
2018-07-14T13:50:27.523Z,28.61
2018-07-14T13:52:57.240Z,28.70
2018-07-14T13:55:26.940Z,28.98
2018-07-14T13:57:56.554Z,29.28
2018-07-14T14:00:26.225Z,29.55
2018-07-14T14:02:55.847Z,29.37
2018-07-14T14:05:25.526Z,29.43
2018-07-14T14:07:55.180Z,29.38
2018-07-14T14:10:24.828Z,29.43
2018-07-14T14:12:54.459Z,29.46
2018-07-14T14:15:24.119Z,29.68
2018-07-14T14:17:53.744Z,29.96
2018-07-14T14:20:23.404Z,30.00
2018-07-14T14:22:53.080Z,29.99
2018-07-14T14:25:22.699Z,29.50
2018-07-14T14:27:52.328Z,28.97
2018-07-14T14:30:22.056Z,28.77
2018-07-14T14:32:51.691Z,28.79
2018-07-14T14:35:21.383Z,28.98
2018-07-14T14:37:51.064Z,28.96
2018-07-14T14:40:20.692Z,28.81
2018-07-14T14:42:50.357Z,28.72
2018-07-14T14:45:20.048Z,28.59
2018-07-14T14:47:49.712Z,28.72
2018-07-14T14:50:19.322Z,28.71
2018-07-14T14:52:48.976Z,28.78
2018-07-14T14:55:18.595Z,28.25
2018-07-14T14:57:48.260Z,27.91
2018-07-14T15:00:17.915Z,27.72
2018-07-14T15:02:47.592Z,27.52
2018-07-14T15:05:17.231Z,27.50
2018-07-14T15:07:46.899Z,27.54
2018-07-14T15:10:16.560Z,27.43
2018-07-14T15:12:46.264Z,27.38
2018-07-14T15:15:15.908Z,27.32
2018-07-14T15:17:45.551Z,27.13
2018-07-14T15:20:15.240Z,26.97
2018-07-14T15:22:44.888Z,26.87
2018-07-14T15:25:14.495Z,26.64
2018-07-14T15:27:44.483Z,26.47
2018-07-14T15:30:14.111Z,26.50
2018-07-14T15:32:44.001Z,26.51
2018-07-14T15:35:13.552Z,26.53
2018-07-14T15:37:43.179Z,26.47
2018-07-14T15:40:13.273Z,26.56
2018-07-14T15:42:43.436Z,26.40
2018-07-14T15:45:13.111Z,26.19
2018-07-14T15:47:42.765Z,26.18
2018-07-14T15:50:12.435Z,26.22
2018-07-14T15:52:42.103Z,26.14
2018-07-14T15:55:11.788Z,26.16
2018-07-14T15:57:41.391Z,26.15
2018-07-14T16:00:11.158Z,26.17
2018-07-14T16:02:40.836Z,26.27
2018-07-14T16:05:10.495Z,26.25
2018-07-14T16:07:40.184Z,26.21
2018-07-14T16:10:09.816Z,26.05
2018-07-14T16:12:41.476Z,26.02
2018-07-14T16:15:11.587Z,25.97
2018-07-14T16:17:41.256Z,25.90
2018-07-14T16:20:10.892Z,25.90
2018-07-14T16:22:40.506Z,25.97
2018-07-14T16:25:10.200Z,25.97
2018-07-14T16:27:39.824Z,25.88
2018-07-14T16:30:09.479Z,25.81
2018-07-14T16:32:39.338Z,25.73
2018-07-14T16:35:08.989Z,25.73
2018-07-14T16:37:38.655Z,25.69
2018-07-14T16:40:08.372Z,25.67
2018-07-14T16:42:37.999Z,25.76
2018-07-14T16:45:07.755Z,25.64
2018-07-14T16:47:37.451Z,25.58
2018-07-14T16:50:07.168Z,25.51
2018-07-14T16:52:36.788Z,25.50
2018-07-14T16:55:06.719Z,25.51
2018-07-14T16:57:36.417Z,25.51
2018-07-14T17:00:06.316Z,25.45
2018-07-14T17:02:36.206Z,25.31
2018-07-14T17:05:05.875Z,25.28
2018-07-14T17:07:35.556Z,25.20
2018-07-14T17:10:05.252Z,25.19
2018-07-14T17:12:34.839Z,25.17
2018-07-14T17:15:04.506Z,25.21
2018-07-14T17:17:34.123Z,25.20
2018-07-14T17:20:03.784Z,25.08
2018-07-14T17:22:33.432Z,24.99
2018-07-14T17:25:03.051Z,24.95
2018-07-14T17:27:32.672Z,24.92
2018-07-14T17:30:02.340Z,24.89
2018-07-14T17:32:31.947Z,24.86
2018-07-14T17:35:01.560Z,24.81
2018-07-14T17:37:31.220Z,24.78
2018-07-14T17:40:00.846Z,24.69
2018-07-14T17:42:30.496Z,24.62
2018-07-14T17:45:00.168Z,24.54
2018-07-14T17:47:29.824Z,24.36
2018-07-14T17:49:59.460Z,24.37
2018-07-14T17:52:29.379Z,24.43
2018-07-14T17:54:59.051Z,24.34
2018-07-14T17:57:28.736Z,24.29
2018-07-14T17:59:58.432Z,24.29
2018-07-14T18:02:28.056Z,24.27
2018-07-14T18:04:57.664Z,24.22
2018-07-14T18:07:27.340Z,24.15
2018-07-14T18:09:56.967Z,24.15
2018-07-14T18:12:26.593Z,24.06
2018-07-14T18:14:56.252Z,23.98
2018-07-14T18:17:25.889Z,24.00
2018-07-14T18:19:55.508Z,23.97
2018-07-14T18:22:25.190Z,23.87
2018-07-14T18:24:54.809Z,23.87
2018-07-14T18:27:24.476Z,23.86
2018-07-14T18:29:54.084Z,23.81
2018-07-14T18:32:23.726Z,23.75
2018-07-14T18:34:53.421Z,23.66
2018-07-14T18:37:23.020Z,23.61
2018-07-14T18:39:52.626Z,23.53
2018-07-14T18:42:22.284Z,23.50
2018-07-14T18:44:51.894Z,23.50
2018-07-14T18:47:21.536Z,23.45
2018-07-14T18:49:51.228Z,23.43
2018-07-14T18:52:20.921Z,23.36
2018-07-14T18:54:50.703Z,23.28
2018-07-14T18:57:20.356Z,23.25
2018-07-14T18:59:50.012Z,23.25
2018-07-14T19:02:19.640Z,23.14
2018-07-14T19:04:49.316Z,23.10
2018-07-14T19:07:18.939Z,22.90
2018-07-14T19:09:48.607Z,22.85
2018-07-14T19:12:18.223Z,22.72
2018-07-14T19:14:47.888Z,22.66
2018-07-14T19:17:17.560Z,22.63
2018-07-14T19:19:47.177Z,22.56
2018-07-14T19:22:16.805Z,22.43
2018-07-14T19:24:46.455Z,22.26
2018-07-14T19:27:16.100Z,22.15
2018-07-14T19:29:45.713Z,22.00
2018-07-14T19:32:15.384Z,21.90
2018-07-14T19:34:45.064Z,21.72
2018-07-14T19:37:14.716Z,21.72
2018-07-14T19:39:44.788Z,21.65
2018-07-14T19:42:14.424Z,21.56
2018-07-14T19:44:44.152Z,21.51
2018-07-14T19:47:13.864Z,21.39
2018-07-14T19:49:43.504Z,21.25
2018-07-14T19:52:13.204Z,21.20
2018-07-14T19:54:42.807Z,21.07
2018-07-14T19:57:12.432Z,20.95
2018-07-14T19:59:42.075Z,20.82
2018-07-14T20:02:11.703Z,20.81
2018-07-14T20:04:41.330Z,20.78
2018-07-14T20:07:11.016Z,20.70
2018-07-14T20:09:40.665Z,20.64
2018-07-14T20:12:10.321Z,20.60
2018-07-14T20:14:39.972Z,20.53
2018-07-14T20:17:09.579Z,20.46
2018-07-14T20:19:39.321Z,20.42
2018-07-14T20:22:08.898Z,20.30
2018-07-14T20:24:38.516Z,20.19
2018-07-14T20:27:08.172Z,20.11
2018-07-14T20:29:37.790Z,20.08
2018-07-14T20:32:07.415Z,20.03
2018-07-14T20:34:37.075Z,20.00
2018-07-14T20:37:06.695Z,19.95
2018-07-14T20:39:36.335Z,19.99
2018-07-14T20:42:06.038Z,19.97
2018-07-14T20:44:35.744Z,19.88
2018-07-14T20:47:05.389Z,19.86
2018-07-14T20:49:35.076Z,19.82
2018-07-14T20:52:04.702Z,19.76
2018-07-14T20:54:34.319Z,19.82
2018-07-14T20:57:04.063Z,19.83
2018-07-14T20:59:33.688Z,19.81
2018-07-14T21:02:03.315Z,19.77
2018-07-14T21:04:32.963Z,19.64
2018-07-14T21:07:02.565Z,19.68
2018-07-14T21:09:32.315Z,19.58
2018-07-14T21:12:01.931Z,19.56
2018-07-14T21:14:31.560Z,19.47
2018-07-14T21:17:01.246Z,19.60
2018-07-14T21:19:30.844Z,19.58
2018-07-14T21:22:00.463Z,19.49
2018-07-14T21:24:30.111Z,19.45
2018-07-14T21:26:59.771Z,19.54
2018-07-14T21:29:29.696Z,19.54
2018-07-14T21:31:59.409Z,19.46
2018-07-14T21:34:29.282Z,19.41
2018-07-14T21:36:58.895Z,19.40
2018-07-14T21:39:28.576Z,19.35
2018-07-14T21:41:58.200Z,19.31
2018-07-14T21:44:27.805Z,19.29
2018-07-14T21:46:57.472Z,19.23
2018-07-14T21:49:27.139Z,19.28
2018-07-14T21:51:56.791Z,19.25
2018-07-14T21:54:26.484Z,19.09
2018-07-14T21:56:56.120Z,19.05
2018-07-14T21:59:25.728Z,18.83
2018-07-14T22:01:55.660Z,18.63
2018-07-14T22:04:25.291Z,18.63
2018-07-14T22:06:54.905Z,18.70
2018-07-14T22:09:24.563Z,18.56
2018-07-14T22:11:54.181Z,18.49
2018-07-14T22:14:23.793Z,18.45
2018-07-14T22:16:53.428Z,18.57
2018-07-14T22:19:23.052Z,18.62
2018-07-14T22:21:52.732Z,18.64
2018-07-14T22:24:22.422Z,18.64
2018-07-14T22:26:52.219Z,18.65
2018-07-14T22:29:21.927Z,18.53
2018-07-14T22:31:51.571Z,18.56
2018-07-14T22:34:21.217Z,18.58
2018-07-14T22:36:50.860Z,18.60
2018-07-14T22:39:20.527Z,18.57
2018-07-14T22:41:50.211Z,18.26
2018-07-14T22:44:20.119Z,18.03
2018-07-14T22:46:49.779Z,17.82
2018-07-14T22:49:19.412Z,17.58
2018-07-14T22:51:49.132Z,17.90
2018-07-14T22:54:18.772Z,17.78
2018-07-14T22:56:48.396Z,17.45
2018-07-14T22:59:18.055Z,17.25
2018-07-14T23:01:47.676Z,17.24
2018-07-14T23:04:17.299Z,17.38
2018-07-14T23:06:46.980Z,17.63
2018-07-14T23:09:16.672Z,17.75
2018-07-14T23:11:46.364Z,17.74
2018-07-14T23:14:15.984Z,17.82
2018-07-14T23:16:45.600Z,17.80
2018-07-14T23:19:15.259Z,17.78
2018-07-14T23:21:44.884Z,17.73
2018-07-14T23:24:14.544Z,17.68
2018-07-14T23:26:44.188Z,17.65
2018-07-14T23:29:13.804Z,17.59
2018-07-14T23:31:43.415Z,17.53
2018-07-14T23:34:13.111Z,17.46
2018-07-14T23:36:42.715Z,17.43
2018-07-14T23:39:12.333Z,17.42
2018-07-14T23:41:42.107Z,17.35
2018-07-14T23:44:11.735Z,17.22
2018-07-14T23:46:41.332Z,16.79
2018-07-14T23:49:11.285Z,16.57
2018-07-14T23:51:40.935Z,16.45
2018-07-14T23:54:10.541Z,16.32
2018-07-14T23:56:40.195Z,16.36
2018-07-14T23:59:09.792Z,16.55
